Time;durP1;ratioP1;P1;durP2;ratioP2;P2;SDS_P1;SDS_P2;PMS_P1;PMS_P2;Temp;Humidity;BMP_temperature;BMP_pressure;BME280_temperature;BME280_humidity;BME280_pressure;Samples;Min_cycle;Max_cycle;Signal;HPM_P1;HPM_P2
2022/10/19 00:00:02;;;;;;;;;;;22.60;98.50;;;;;;4192782;28;19924;-69
2022/10/19 00:02:09;;;;;;;;;;;22.60;98.30;;;;;;4194795;28;20672;-71
2022/10/19 00:04:13;;;;;;;;;;;22.60;98.40;;;;;;4209697;28;19932;-72
2022/10/19 00:06:24;;;;;;;;;;;22.70;98.30;;;;;;4194464;28;20018;-72
2022/10/19 00:08:28;;;;;;;;;;;22.60;98.60;;;;;;4208830;28;20026;-72
2022/10/19 00:10:32;;;;;;;;;;;22.70;98.40;;;;;;4194041;28;19929;-72
2022/10/19 00:12:39;;;;;;;;;;;22.60;98.40;;;;;;4186253;28;20015;-71
2022/10/19 00:14:43;;;;;;;;;;;22.70;98.30;;;;;;4192179;28;19929;-72
2022/10/19 00:16:49;;;;;;;;;;;22.70;98.20;;;;;;4191805;28;20027;-72
2022/10/19 00:18:58;;;;;;;;;;;22.90;98.00;;;;;;4157944;28;19929;-72
2022/10/19 00:21:03;;;;;;;;;;;22.90;98.00;;;;;;4191652;28;20027;-71
2022/10/19 00:23:08;;;;;;;;;;;22.80;98.50;;;;;;4192044;28;20027;-72
2022/10/19 00:25:14;;;;;;;;;;;22.80;98.30;;;;;;4193096;28;19932;-71
2022/10/19 00:27:18;;;;;;;;;;;22.90;98.30;;;;;;4192762;28;20407;-71
2022/10/19 00:29:23;;;;;;;;;;;22.90;97.80;;;;;;4193321;28;19932;-71
2022/10/19 00:31:27;;;;;;;;;;;23.00;97.90;;;;;;4192358;28;19978;-70
2022/10/19 00:33:33;;;;;;;;;;;23.10;97.80;;;;;;4193119;28;19935;-72
2022/10/19 00:35:40;;;;;;;;;;;23.20;97.70;;;;;;4192923;28;19924;-71
2022/10/19 00:37:49;;;;;;;;;;;23.30;97.40;;;;;;4142081;28;19961;-70
2022/10/19 00:40:00;;;;;;;;;;;23.20;97.10;;;;;;4193319;28;19978;-70
2022/10/19 00:42:12;;;;;;;;;;;23.10;97.80;;;;;;4192959;28;19936;-69
2022/10/19 00:44:22;;;;;;;;;;;23.20;97.40;;;;;;4191019;28;19924;-70
2022/10/19 00:46:28;;;;;;;;;;;23.00;97.30;;;;;;4193693;28;20325;-69
2022/10/19 00:48:32;;;;;;;;;;;23.20;97.60;;;;;;4193698;28;19928;-70
2022/10/19 00:50:41;;;;;;;;;;;23.20;97.10;;;;;;4190872;28;19986;-70
2022/10/19 00:52:45;;;;;;;;;;;23.30;96.30;;;;;;4193048;28;20002;-71
2022/10/19 00:55:00;;;;;;;;;;;23.30;95.80;;;;;;4193343;28;20011;-69
2022/10/19 00:57:09;;;;;;;;;;;23.30;95.60;;;;;;4193849;28;19924;-71
2022/10/19 00:59:18;;;;;;;;;;;23.30;95.50;;;;;;4193977;28;19947;-70
2022/10/19 01:01:35;;;;;;;;;;;23.40;95.60;;;;;;4206804;28;20036;-69
2022/10/19 01:03:39;;;;;;;;;;;23.50;95.30;;;;;;4192915;28;19959;-69
2022/10/19 01:05:43;;;;;;;;;;;23.60;95.30;;;;;;4193486;28;19932;-71
2022/10/19 01:07:48;;;;;;;;;;;23.60;95.20;;;;;;4192099;28;20239;-71
2022/10/19 01:09:57;;;;;;;;;;;23.50;95.10;;;;;;4208222;28;19928;-71
2022/10/19 01:12:06;;;;;;;;;;;23.60;95.40;;;;;;4191939;28;19955;-69
2022/10/19 01:14:30;;;;;;;;;;;23.70;95.30;;;;;;4208710;28;19932;-69
2022/10/19 01:16:49;;;;;;;;;;;23.70;95.40;;;;;;4193251;28;20243;-70
2022/10/19 01:19:05;;;;;;;;;;;23.80;95.30;;;;;;4193055;28;19963;-71
2022/10/19 01:21:17;;;;;;;;;;;23.80;95.40;;;;;;4191655;28;19979;-70
2022/10/19 01:23:34;;;;;;;;;;;23.80;95.40;;;;;;4208031;28;19928;-71
2022/10/19 01:25:43;;;;;;;;;;;23.90;95.30;;;;;;4190495;28;20524;-72
2022/10/19 01:27:59;;;;;;;;;;;24.00;95.40;;;;;;4185752;28;20409;-71
2022/10/19 01:30:06;;;;;;;;;;;24.10;94.90;;;;;;4192949;28;19933;-70
2022/10/19 01:32:11;;;;;;;;;;;24.20;94.50;;;;;;4208577;28;19961;-70
2022/10/19 01:34:21;;;;;;;;;;;24.20;94.90;;;;;;4208527;28;19928;-71
2022/10/19 01:36:40;;;;;;;;;;;24.30;94.00;;;;;;4208358;28;20317;-71
2022/10/19 01:38:52;;;;;;;;;;;24.40;93.60;;;;;;4193794;28;20400;-71
2022/10/19 01:40:59;;;;;;;;;;;24.50;93.00;;;;;;4191404;28;19935;-71
2022/10/19 01:43:08;;;;;;;;;;;24.50;92.60;;;;;;4209493;28;19967;-70
2022/10/19 01:45:16;;;;;;;;;;;24.50;92.60;;;;;;4210765;28;19957;-72
2022/10/19 01:47:23;;;;;;;;;;;24.60;92.90;;;;;;4193730;28;19990;-73
2022/10/19 01:49:36;;;;;;;;;;;24.70;92.30;;;;;;4205174;28;19954;-72
2022/10/19 01:51:43;;;;;;;;;;;24.60;92.60;;;;;;4195019;28;19986;-72
2022/10/19 01:53:49;;;;;;;;;;;24.70;91.60;;;;;;4196129;28;19924;-72
2022/10/19 01:55:53;;;;;;;;;;;24.80;90.90;;;;;;4194277;28;20570;-72
2022/10/19 01:57:59;;;;;;;;;;;24.80;91.00;;;;;;4209859;28;19967;-72
2022/10/19 02:00:06;;;;;;;;;;;24.80;90.30;;;;;;4211278;28;19928;-72
2022/10/19 02:02:26;;;;;;;;;;;24.90;90.80;;;;;;4196698;28;19932;-72
2022/10/19 02:04:31;;;;;;;;;;;24.90;90.50;;;;;;4210859;28;19981;-72
2022/10/19 02:06:37;;;;;;;;;;;24.90;88.90;;;;;;4195624;28;20015;-72
2022/10/19 02:08:44;;;;;;;;;;;25.00;90.00;;;;;;4209014;28;20115;-71
2022/10/19 02:10:53;;;;;;;;;;;25.00;90.20;;;;;;4210192;28;20021;-73
2022/10/19 02:13:07;;;;;;;;;;;25.10;88.40;;;;;;4195834;28;19960;-73
2022/10/19 02:15:21;;;;;;;;;;;25.10;88.90;;;;;;4191624;28;20027;-72
2022/10/19 02:17:29;;;;;;;;;;;25.20;89.20;;;;;;4208851;28;19932;-71
2022/10/19 02:19:35;;;;;;;;;;;25.30;89.60;;;;;;4210423;28;19990;-72
2022/10/19 02:21:41;;;;;;;;;;;25.30;89.50;;;;;;4192945;28;19929;-72
2022/10/19 02:23:52;;;;;;;;;;;25.30;87.10;;;;;;4195281;28;20044;-70
2022/10/19 02:26:00;;;;;;;;;;;25.30;88.50;;;;;;4210841;28;19932;-73
2022/10/19 02:28:23;;;;;;;;;;;25.30;88.70;;;;;;4209783;28;20371;-71
2022/10/19 02:30:41;;;;;;;;;;;25.40;87.20;;;;;;4189368;28;20408;-71
2022/10/19 02:33:02;;;;;;;;;;;25.40;86.70;;;;;;4195787;28;19928;-71
2022/10/19 02:35:08;;;;;;;;;;;25.40;87.10;;;;;;4195955;28;19955;-71
2022/10/19 02:37:12;;;;;;;;;;;25.60;87.10;;;;;;4201738;28;19928;-72
2022/10/19 02:39:17;;;;;;;;;;;25.60;87.00;;;;;;4176038;28;19935;-71
2022/10/19 02:41:23;;;;;;;;;;;25.60;85.60;;;;;;4174606;28;20406;-72
2022/10/19 02:43:29;;;;;;;;;;;25.70;86.30;;;;;;4180449;28;19925;-72
2022/10/19 02:45:38;;;;;;;;;;;25.70;85.90;;;;;;4180031;28;19935;-71
2022/10/19 02:47:47;;;;;;;;;;;25.60;86.20;;;;;;4173921;28;19987;-72
2022/10/19 02:49:51;;;;;;;;;;;25.70;86.70;;;;;;4174454;28;19976;-72
2022/10/19 02:51:57;;;;;;;;;;;25.80;87.30;;;;;;4198257;28;19973;-74
2022/10/19 02:54:03;;;;;;;;;;;25.70;86.80;;;;;;4163931;28;20385;-73
2022/10/19 02:56:08;;;;;;;;;;;25.80;86.90;;;;;;4202279;28;19934;-72
2022/10/19 02:58:14;;;;;;;;;;;25.80;86.10;;;;;;4186010;28;19933;-71
2022/10/19 03:00:21;;;;;;;;;;;25.90;86.20;;;;;;4179444;28;19925;-72
2022/10/19 03:02:27;;;;;;;;;;;25.90;86.80;;;;;;4197513;28;19924;-72
2022/10/19 03:04:35;;;;;;;;;;;25.90;85.90;;;;;;4198395;28;19964;-72
2022/10/19 03:06:49;;;;;;;;;;;25.90;85.50;;;;;;4172135;28;20424;-71
2022/10/19 03:08:55;;;;;;;;;;;26.00;85.80;;;;;;4191010;28;19964;-72
2022/10/19 03:11:01;;;;;;;;;;;26.00;85.10;;;;;;4194234;28;19924;-71
2022/10/19 03:13:15;;;;;;;;;;;25.90;84.60;;;;;;4193138;28;19928;-71
2022/10/19 03:15:27;;;;;;;;;;;26.00;85.20;;;;;;4182594;28;20427;-71
2022/10/19 03:17:32;;;;;;;;;;;26.00;84.50;;;;;;4193850;28;19997;-71
2022/10/19 03:19:42;;;;;;;;;;;26.10;84.20;;;;;;4193184;28;19939;-71
2022/10/19 03:21:47;;;;;;;;;;;26.20;85.10;;;;;;4185440;28;19987;-71
2022/10/19 03:23:51;;;;;;;;;;;26.20;85.00;;;;;;4192096;28;19952;-72
2022/10/19 03:25:59;;;;;;;;;;;26.30;84.20;;;;;;4194323;28;19929;-71
2022/10/19 03:28:03;;;;;;;;;;;26.30;84.20;;;;;;4195063;28;19929;-72
2022/10/19 03:30:08;;;;;;;;;;;26.40;84.80;;;;;;4194576;28;20532;-71
2022/10/19 03:32:17;;;;;;;;;;;26.40;83.00;;;;;;4194325;28;19929;-70
2022/10/19 03:34:22;;;;;;;;;;;26.40;84.30;;;;;;4194560;28;19928;-71
2022/10/19 03:36:28;;;;;;;;;;;26.40;84.40;;;;;;4194335;28;19933;-70
2022/10/19 03:38:36;;;;;;;;;;;26.50;83.70;;;;;;4208681;28;19936;-70
2022/10/19 03:40:40;;;;;;;;;;;26.60;83.30;;;;;;4179027;28;20342;-71
2022/10/19 03:42:45;;;;;;;;;;;26.70;83.50;;;;;;4190943;28;19929;-69
2022/10/19 03:44:53;;;;;;;;;;;26.70;82.70;;;;;;4193803;28;19982;-71
2022/10/19 03:46:58;;;;;;;;;;;26.70;82.40;;;;;;4193480;28;19928;-70
2022/10/19 03:49:03;;;;;;;;;;;26.70;82.90;;;;;;4192310;28;20026;-71
2022/10/19 03:51:13;;;;;;;;;;;26.80;83.00;;;;;;4190828;28;20681;-69
2022/10/19 03:53:17;;;;;;;;;;;26.80;83.30;;;;;;4193374;28;19931;-70
2022/10/19 03:55:22;;;;;;;;;;;26.90;84.20;;;;;;4193926;28;20022;-71
2022/10/19 03:57:30;;;;;;;;;;;26.90;84.00;;;;;;4191785;28;19939;-72
2022/10/19 03:59:35;;;;;;;;;;;27.00;84.40;;;;;;4209082;28;20289;-71
2022/10/19 04:01:42;;;;;;;;;;;27.00;83.20;;;;;;4196975;28;19928;-70
2022/10/19 04:04:08;;;;;;;;;;;27.00;83.30;;;;;;4193122;28;19928;-71
2022/10/19 04:06:14;;;;;;;;;;;27.10;84.30;;;;;;4191474;28;19924;-71
2022/10/19 04:08:24;;;;;;;;;;;27.30;83.90;;;;;;4194042;28;19924;-71
2022/10/19 04:10:30;;;;;;;;;;;27.20;82.90;;;;;;4201860;28;19928;-71
2022/10/19 04:12:35;;;;;;;;;;;27.20;82.00;;;;;;4207072;28;19924;-67
2022/10/19 04:14:39;;;;;;;;;;;27.20;82.70;;;;;;4193681;28;20657;-72
2022/10/19 04:17:08;;;;;;;;;;;27.30;81.60;;;;;;4206078;28;19928;-70
2022/10/19 04:19:21;;;;;;;;;;;27.30;81.60;;;;;;4207388;28;19928;-72
2022/10/19 04:21:42;;;;;;;;;;;27.40;80.90;;;;;;4190652;28;20307;-71
2022/10/19 04:23:50;;;;;;;;;;;27.40;81.10;;;;;;4205109;28;20410;-71
2022/10/19 04:26:01;;;;;;;;;;;27.30;81.10;;;;;;4191597;28;20571;-72
2022/10/19 04:28:06;;;;;;;;;;;27.40;80.00;;;;;;4193635;28;19931;-71
2022/10/19 04:30:25;;;;;;;;;;;27.50;81.10;;;;;;4206423;28;19935;-72
2022/10/19 04:32:33;;;;;;;;;;;27.50;78.90;;;;;;4193499;28;19936;-71
2022/10/19 04:34:40;;;;;;;;;;;27.60;80.30;;;;;;4192850;28;19938;-73
2022/10/19 04:36:58;;;;;;;;;;;27.70;79.00;;;;;;4193643;28;20009;-71
2022/10/19 04:39:21;;;;;;;;;;;27.60;78.50;;;;;;4185303;28;19997;-72
2022/10/19 04:41:25;;;;;;;;;;;27.70;77.70;;;;;;4208191;28;19928;-72
2022/10/19 04:43:33;;;;;;;;;;;27.80;79.10;;;;;;4182069;28;19959;-72
2022/10/19 04:45:37;;;;;;;;;;;27.90;78.90;;;;;;4193025;28;19932;-72
2022/10/19 04:47:41;;;;;;;;;;;27.90;78.10;;;;;;4190415;28;19925;-71
2022/10/19 04:49:47;;;;;;;;;;;27.90;76.50;;;;;;4170244;28;20406;-72
2022/10/19 04:51:51;;;;;;;;;;;27.80;75.30;;;;;;4187215;28;19928;-71
2022/10/19 04:53:57;;;;;;;;;;;27.90;77.60;;;;;;4191152;28;20023;-71
2022/10/19 04:56:05;;;;;;;;;;;27.90;76.80;;;;;;4188445;28;20464;-71
2022/10/19 04:58:10;;;;;;;;;;;28.00;76.70;;;;;;4192972;28;19982;-70
2022/10/19 05:00:14;;;;;;;;;;;28.10;76.10;;;;;;4206698;28;19928;-71
2022/10/19 05:02:44;;;;;;;;;;;28.10;76.90;;;;;;4193330;28;19939;-70
2022/10/19 05:04:54;;;;;;;;;;;28.10;76.60;;;;;;4192945;28;20523;-71
2022/10/19 05:07:01;;;;;;;;;;;28.30;78.40;;;;;;4192134;28;19982;-71
2022/10/19 05:09:06;;;;;;;;;;;28.30;75.10;;;;;;4181471;28;19924;-70
2022/10/19 05:11:28;;;;;;;;;;;28.20;75.60;;;;;;4183026;28;20019;-72
2022/10/19 05:13:36;;;;;;;;;;;28.30;75.60;;;;;;4193489;28;20507;-69
2022/10/19 05:15:57;;;;;;;;;;;28.40;76.90;;;;;;4134034;28;20075;-71
2022/10/19 05:18:01;;;;;;;;;;;28.50;77.20;;;;;;4176313;28;19933;-70
2022/10/19 05:20:06;;;;;;;;;;;28.40;75.60;;;;;;4178845;28;19990;-71
2022/10/19 05:22:11;;;;;;;;;;;28.40;74.80;;;;;;4187351;28;19924;-71
2022/10/19 05:24:16;;;;;;;;;;;28.40;77.50;;;;;;4174767;28;20015;-71
2022/10/19 05:26:40;;;;;;;;;;;28.50;76.60;;;;;;4195719;28;19936;-70
2022/10/19 05:28:55;;;;;;;;;;;28.50;76.20;;;;;;4197171;28;20054;-71
2022/10/19 05:31:06;;;;;;;;;;;28.60;77.10;;;;;;4193987;28;19927;-70
2022/10/19 05:33:30;;;;;;;;;;;28.70;76.30;;;;;;4200947;28;19924;-70
2022/10/19 05:35:42;;;;;;;;;;;28.70;75.60;;;;;;4195004;28;19928;-70
2022/10/19 05:37:56;;;;;;;;;;;28.60;75.10;;;;;;4211581;28;19928;-71
2022/10/19 05:40:13;;;;;;;;;;;28.60;76.10;;;;;;4189425;28;20732;-70
2022/10/19 05:42:37;;;;;;;;;;;28.70;75.40;;;;;;4195605;28;19932;-70
2022/10/19 05:45:01;;;;;;;;;;;28.70;76.80;;;;;;4195325;28;19975;-70
2022/10/19 05:47:25;;;;;;;;;;;28.80;74.60;;;;;;4209943;28;20341;-70
2022/10/19 05:49:51;;;;;;;;;;;28.80;76.30;;;;;;4208511;28;19963;-71
2022/10/19 05:51:56;;;;;;;;;;;28.70;75.40;;;;;;4196167;28;20290;-70
2022/10/19 05:54:02;;;;;;;;;;;28.80;76.40;;;;;;4196535;28;20047;-71
2022/10/19 05:56:08;;;;;;;;;;;28.80;75.80;;;;;;4208594;28;19924;-71
2022/10/19 05:58:12;;;;;;;;;;;29.00;75.80;;;;;;4181597;28;20399;-70
2022/10/19 06:00:18;;;;;;;;;;;29.00;75.40;;;;;;4191129;28;19932;-70
2022/10/19 06:02:22;;;;;;;;;;;29.00;75.70;;;;;;4195844;28;20402;-71
2022/10/19 06:04:28;;;;;;;;;;;29.00;75.90;;;;;;4179824;28;19929;-71
2022/10/19 06:06:32;;;;;;;;;;;28.80;74.30;;;;;;4196311;28;20406;-71
2022/10/19 06:08:38;;;;;;;;;;;28.90;74.40;;;;;;4210075;28;19938;-70
2022/10/19 06:10:43;;;;;;;;;;;29.00;74.30;;;;;;4213636;28;19981;-71
2022/10/19 06:12:47;;;;;;;;;;;29.00;75.60;;;;;;4213777;28;20405;-70
2022/10/19 06:14:51;;;;;;;;;;;29.00;75.10;;;;;;4201937;28;19931;-71
2022/10/19 06:16:56;;;;;;;;;;;29.00;74.80;;;;;;4195731;28;19962;-71
2022/10/19 06:19:02;;;;;;;;;;;29.10;74.60;;;;;;4174946;28;19974;-71
2022/10/19 06:21:08;;;;;;;;;;;29.10;75.90;;;;;;4196652;28;19963;-71
2022/10/19 06:23:12;;;;;;;;;;;29.10;75.40;;;;;;4182794;28;20603;-71
2022/10/19 06:25:17;;;;;;;;;;;29.10;74.80;;;;;;4196585;28;20559;-71
2022/10/19 06:27:25;;;;;;;;;;;29.10;74.90;;;;;;4193598;28;19978;-72
2022/10/19 06:29:30;;;;;;;;;;;29.20;75.10;;;;;;4189529;28;19932;-71
2022/10/19 06:31:35;;;;;;;;;;;29.30;74.60;;;;;;4175510;28;19979;-71
2022/10/19 06:33:39;;;;;;;;;;;29.30;74.50;;;;;;4180735;28;19936;-69
2022/10/19 06:35:44;;;;;;;;;;;29.30;73.70;;;;;;4193860;28;20449;-71
2022/10/19 06:37:56;;;;;;;;;;;29.30;73.80;;;;;;4199368;28;19929;-72
2022/10/19 06:40:03;;;;;;;;;;;29.30;74.40;;;;;;4201016;28;19939;-71
2022/10/19 06:42:11;;;;;;;;;;;29.30;75.00;;;;;;4190391;28;19978;-71
2022/10/19 06:44:15;;;;;;;;;;;29.40;74.60;;;;;;4189186;28;19978;-72
2022/10/19 06:46:22;;;;;;;;;;;29.40;75.50;;;;;;4208092;28;20506;-71
2022/10/19 06:48:25;;;;;;;;;;;29.40;74.40;;;;;;4195352;28;19928;-72
2022/10/19 06:50:34;;;;;;;;;;;29.40;73.50;;;;;;4197888;28;19933;-72
2022/10/19 06:52:58;;;;;;;;;;;29.40;74.00;;;;;;4206088;28;19932;-72
2022/10/19 06:55:17;;;;;;;;;;;29.40;75.10;;;;;;4202432;28;19932;-72
2022/10/19 06:57:25;;;;;;;;;;;29.60;75.30;;;;;;4213173;28;19931;-73
2022/10/19 06:59:43;;;;;;;;;;;29.60;74.30;;;;;;4212551;28;20380;-72
2022/10/19 07:01:50;;;;;;;;;;;29.70;73.90;;;;;;4191978;28;20604;-72
2022/10/19 07:03:59;;;;;;;;;;;29.70;73.70;;;;;;4175754;28;19929;-72
2022/10/19 07:06:09;;;;;;;;;;;29.70;73.20;;;;;;4179324;28;19937;-72
2022/10/19 07:08:15;;;;;;;;;;;29.60;73.00;;;;;;4193712;28;19928;-71
2022/10/19 07:10:25;;;;;;;;;;;29.60;74.40;;;;;;4209487;28;19973;-71
2022/10/19 07:12:30;;;;;;;;;;;29.60;73.80;;;;;;4191433;28;20472;-72
2022/10/19 07:14:38;;;;;;;;;;;29.40;72.90;;;;;;4190196;28;19932;-73
2022/10/19 07:16:42;;;;;;;;;;;29.40;73.40;;;;;;4195647;28;19963;-71
2022/10/19 07:18:46;;;;;;;;;;;29.40;73.40;;;;;;4210993;28;19928;-73
2022/10/19 07:20:57;;;;;;;;;;;29.40;73.90;;;;;;4210288;28;19967;-72
2022/10/19 07:23:02;;;;;;;;;;;29.50;73.80;;;;;;4192272;28;19924;-71
2022/10/19 07:25:07;;;;;;;;;;;29.50;72.80;;;;;;4210409;28;20287;-71
2022/10/19 07:27:11;;;;;;;;;;;29.50;72.70;;;;;;4186009;28;19982;-71
2022/10/19 07:29:16;;;;;;;;;;;29.60;73.30;;;;;;4194909;28;20062;-71
2022/10/19 07:31:21;;;;;;;;;;;29.50;72.60;;;;;;4190589;28;20007;-70
2022/10/19 07:33:26;;;;;;;;;;;29.50;72.60;;;;;;4209736;28;19928;-72
2022/10/19 07:35:30;;;;;;;;;;;29.60;73.50;;;;;;4193637;28;19932;-71
2022/10/19 07:37:34;;;;;;;;;;;29.50;73.00;;;;;;4195953;28;19952;-72
2022/10/19 07:39:38;;;;;;;;;;;29.50;72.80;;;;;;4210195;28;19928;-72
2022/10/19 07:41:45;;;;;;;;;;;29.50;71.80;;;;;;4161902;28;19925;-71
2022/10/19 07:43:49;;;;;;;;;;;29.50;73.70;;;;;;4177494;28;19933;-71
2022/10/19 07:46:04;;;;;;;;;;;29.60;74.10;;;;;;4176824;28;20486;-70
2022/10/19 07:48:08;;;;;;;;;;;29.60;72.40;;;;;;4179344;28;19925;-70
2022/10/19 07:50:18;;;;;;;;;;;29.60;73.40;;;;;;4210413;28;19939;-70
2022/10/19 07:52:22;;;;;;;;;;;29.60;73.10;;;;;;4180990;28;19987;-70
2022/10/19 07:54:28;;;;;;;;;;;29.60;73.30;;;;;;4193615;28;19935;-70
2022/10/19 07:56:34;;;;;;;;;;;29.60;71.50;;;;;;4194701;28;19928;-70
2022/10/19 07:58:39;;;;;;;;;;;29.60;72.00;;;;;;4210104;28;19934;-71
2022/10/19 08:00:43;;;;;;;;;;;29.70;72.90;;;;;;4208798;28;19932;-71
2022/10/19 08:02:49;;;;;;;;;;;29.70;72.70;;;;;;4143353;28;19936;-71
2022/10/19 08:05:13;;;;;;;;;;;29.70;72.50;;;;;;4189570;28;19932;-71
2022/10/19 08:07:18;;;;;;;;;;;29.70;72.70;;;;;;4188726;28;19928;-70
2022/10/19 08:09:23;;;;;;;;;;;29.80;72.70;;;;;;4194738;28;20014;-70
2022/10/19 08:11:53;;;;;;;;;;;29.70;73.30;;;;;;4192333;28;20017;-70
2022/10/19 08:14:02;;;;;;;;;;;29.80;73.10;;;;;;4192633;28;20402;-71
2022/10/19 08:16:22;;;;;;;;;;;29.80;73.40;;;;;;4206756;28;20019;-70
2022/10/19 08:18:31;;;;;;;;;;;29.70;74.00;;;;;;4194156;28;19994;-71
2022/10/19 08:20:40;;;;;;;;;;;29.70;73.40;;;;;;4193709;28;19924;-70
2022/10/19 08:22:49;;;;;;;;;;;29.70;73.40;;;;;;4192744;28;19924;-70
2022/10/19 08:25:11;;;;;;;;;;;29.70;73.30;;;;;;4194514;28;20023;-71
2022/10/19 08:27:16;;;;;;;;;;;29.70;73.00;;;;;;4193206;28;19928;-71
2022/10/19 08:29:22;;;;;;;;;;;29.60;73.30;;;;;;4177698;28;19924;-72
2022/10/19 08:31:45;;;;;;;;;;;29.70;73.00;;;;;;4194934;28;20400;-72
2022/10/19 08:33:54;;;;;;;;;;;29.70;72.90;;;;;;4194780;28;19931;-71
2022/10/19 08:36:02;;;;;;;;;;;29.70;73.00;;;;;;4195036;28;19970;-71
2022/10/19 08:38:12;;;;;;;;;;;29.70;73.50;;;;;;4177363;28;19928;-71
2022/10/19 08:40:24;;;;;;;;;;;29.70;73.60;;;;;;4190620;28;19932;-72
2022/10/19 08:42:36;;;;;;;;;;;29.60;73.40;;;;;;4194796;28;20638;-72
2022/10/19 08:44:53;;;;;;;;;;;29.60;73.80;;;;;;4176117;28;20004;-71
2022/10/19 08:47:11;;;;;;;;;;;29.60;73.00;;;;;;4193926;28;19956;-71
2022/10/19 08:49:19;;;;;;;;;;;29.70;74.10;;;;;;4209348;28;20402;-72
2022/10/19 08:51:43;;;;;;;;;;;29.70;73.00;;;;;;4188719;28;19928;-71
2022/10/19 08:53:55;;;;;;;;;;;29.60;73.30;;;;;;4208649;28;20001;-71
2022/10/19 08:56:04;;;;;;;;;;;29.60;72.70;;;;;;4188281;28;19928;-71
2022/10/19 08:58:30;;;;;;;;;;;29.60;73.00;;;;;;4194762;28;19925;-71
2022/10/19 09:00:42;;;;;;;;;;;29.60;74.00;;;;;;4193593;28;19982;-70
2022/10/19 09:03:09;;;;;;;;;;;29.70;74.30;;;;;;4178698;28;19935;-71
2022/10/19 09:05:31;;;;;;;;;;;29.70;74.50;;;;;;4194573;28;20456;-71
2022/10/19 09:07:53;;;;;;;;;;;29.70;73.80;;;;;;4186686;28;19931;-69
2022/10/19 09:10:00;;;;;;;;;;;29.60;73.60;;;;;;4211052;28;19948;-70
2022/10/19 09:12:12;;;;;;;;;;;29.50;73.70;;;;;;4211289;28;19957;-72
2022/10/19 09:14:35;;;;;;;;;;;29.50;72.80;;;;;;4173745;28;20449;-70
2022/10/19 09:16:41;;;;;;;;;;;29.60;72.40;;;;;;4191732;28;19958;-71
2022/10/19 09:18:46;;;;;;;;;;;29.60;73.40;;;;;;4179240;28;19932;-71
2022/10/19 09:20:52;;;;;;;;;;;29.60;73.90;;;;;;4192447;28;19995;-71
2022/10/19 09:23:08;;;;;;;;;;;29.50;74.40;;;;;;4209500;28;19928;-71
2022/10/19 09:25:21;;;;;;;;;;;29.50;74.70;;;;;;4194211;28;20441;-71
2022/10/19 09:27:37;;;;;;;;;;;29.50;75.00;;;;;;4194366;28;19943;-72
2022/10/19 09:29:45;;;;;;;;;;;29.50;74.20;;;;;;4209094;28;19932;-71
2022/10/19 09:31:51;;;;;;;;;;;29.50;74.20;;;;;;4208922;28;20413;-71
2022/10/19 09:34:19;;;;;;;;;;;29.50;74.90;;;;;;4207763;28;19924;-72
2022/10/19 09:36:28;;;;;;;;;;;29.50;74.60;;;;;;4209173;28;19928;-73
2022/10/19 09:38:55;;;;;;;;;;;29.50;74.20;;;;;;4207768;28;20445;-72
2022/10/19 09:41:12;;;;;;;;;;;29.40;73.90;;;;;;4193486;28;20400;-71
2022/10/19 09:43:27;;;;;;;;;;;29.40;74.20;;;;;;4210119;28;19928;-71
2022/10/19 09:45:33;;;;;;;;;;;29.30;73.90;;;;;;4193161;28;19952;-71
2022/10/19 09:47:58;;;;;;;;;;;29.30;75.20;;;;;;4223682;28;19934;-71
2022/10/19 09:50:22;;;;;;;;;;;29.30;74.70;;;;;;4206413;28;20753;-73
2022/10/19 09:52:37;;;;;;;;;;;29.40;75.40;;;;;;4193068;28;19952;-73
2022/10/19 09:55:23;;;;;;;;;;;29.40;75.60;;;;;;4193113;28;19929;-71
2022/10/19 09:57:30;;;;;;;;;;;29.30;75.10;;;;;;4193797;28;19936;-72
2022/10/19 09:59:52;;;;;;;;;;;29.30;75.80;;;;;;4193388;28;19928;-72
2022/10/19 10:02:13;;;;;;;;;;;29.30;76.00;;;;;;4182424;28;19940;-72
2022/10/19 10:04:25;;;;;;;;;;;29.30;76.30;;;;;;4212980;28;19935;-72
2022/10/19 10:06:36;;;;;;;;;;;29.30;76.40;;;;;;4211543;28;20312;-70
2022/10/19 10:08:46;;;;;;;;;;;29.20;76.80;;;;;;4209379;28;19936;-72
2022/10/19 10:11:03;;;;;;;;;;;29.20;76.80;;;;;;4193811;28;19986;-72
2022/10/19 10:13:27;;;;;;;;;;;29.20;77.10;;;;;;4197502;28;19929;-71
2022/10/19 10:15:42;;;;;;;;;;;29.10;78.50;;;;;;4203575;28;19974;-73
2022/10/19 10:18:05;;;;;;;;;;;29.10;79.30;;;;;;4179100;28;20031;-72
2022/10/19 10:20:22;;;;;;;;;;;29.10;79.70;;;;;;4177694;28;19971;-71
2022/10/19 10:22:31;;;;;;;;;;;29.10;80.30;;;;;;4145663;28;19933;-73
2022/10/19 10:24:35;;;;;;;;;;;29.00;80.40;;;;;;4161135;28;20023;-73
2022/10/19 10:26:45;;;;;;;;;;;29.00;80.70;;;;;;4177445;28;19932;-72
2022/10/19 10:28:50;;;;;;;;;;;28.90;81.00;;;;;;4162204;28;19933;-73
2022/10/19 10:31:04;;;;;;;;;;;28.90;81.20;;;;;;4177518;28;20391;-73
2022/10/19 10:33:17;;;;;;;;;;;28.90;81.40;;;;;;4178166;28;20394;-72
2022/10/19 10:35:52;;;;;;;;;;;28.80;81.60;;;;;;4173071;28;19925;-71
2022/10/19 10:38:09;;;;;;;;;;;28.80;81.90;;;;;;4202388;28;20697;-71
2022/10/19 10:40:22;;;;;;;;;;;28.80;82.20;;;;;;4180051;28;19924;-72
2022/10/19 10:42:40;;;;;;;;;;;28.70;82.60;;;;;;4212943;28;19929;-71
2022/10/19 10:44:49;;;;;;;;;;;28.70;83.20;;;;;;4179730;28;20338;-72
2022/10/19 10:46:58;;;;;;;;;;;28.60;83.80;;;;;;4212557;28;19928;-71
2022/10/19 10:49:19;;;;;;;;;;;28.50;83.70;;;;;;4201219;28;19993;-70
2022/10/19 10:51:44;;;;;;;;;;;28.50;83.90;;;;;;4194361;28;20039;-71
2022/10/19 10:54:12;;;;;;;;;;;28.50;84.20;;;;;;4209355;28;19931;-71
2022/10/19 10:56:26;;;;;;;;;;;28.40;84.70;;;;;;4195650;28;19935;-72
2022/10/19 10:58:52;;;;;;;;;;;28.40;84.60;;;;;;4195513;28;19947;-70
2022/10/19 11:00:58;;;;;;;;;;;28.40;85.00;;;;;;4177959;28;20020;-73
2022/10/19 11:03:27;;;;;;;;;;;28.30;85.30;;;;;;4193491;28;19959;-74
2022/10/19 11:05:41;;;;;;;;;;;28.30;85.50;;;;;;4210311;28;19950;-73
2022/10/19 11:07:49;;;;;;;;;;;28.30;85.80;;;;;;4211760;28;19935;-73
2022/10/19 11:10:08;;;;;;;;;;;28.30;86.20;;;;;;4196035;28;19987;-72
2022/10/19 11:12:31;;;;;;;;;;;28.20;86.50;;;;;;4184513;28;19960;-73
2022/10/19 11:14:46;;;;;;;;;;;28.20;87.30;;;;;;4208304;28;20015;-71
2022/10/19 11:16:52;;;;;;;;;;;28.20;87.50;;;;;;4206951;28;19939;-71
2022/10/19 11:19:12;;;;;;;;;;;28.10;87.30;;;;;;4210058;28;19932;-71
2022/10/19 11:21:24;;;;;;;;;;;28.10;87.50;;;;;;4209449;28;19928;-72
2022/10/19 11:23:45;;;;;;;;;;;28.10;87.80;;;;;;4210217;28;19928;-71
2022/10/19 11:26:05;;;;;;;;;;;28.00;88.20;;;;;;4195317;28;19974;-71
2022/10/19 11:28:22;;;;;;;;;;;28.00;88.60;;;;;;4195045;28;20472;-72
2022/10/19 11:30:32;;;;;;;;;;;27.90;88.30;;;;;;4195276;28;20361;-71
2022/10/19 11:32:56;;;;;;;;;;;27.90;88.70;;;;;;4179141;28;19933;-72
2022/10/19 11:35:04;;;;;;;;;;;27.90;88.80;;;;;;4209700;28;19924;-71
2022/10/19 11:37:12;;;;;;;;;;;27.80;89.00;;;;;;4195210;28;20082;-72
2022/10/19 11:39:32;;;;;;;;;;;27.80;89.30;;;;;;4195452;28;19932;-71
2022/10/19 11:41:38;;;;;;;;;;;27.70;89.70;;;;;;4194474;28;19959;-72
2022/10/19 11:44:09;;;;;;;;;;;27.70;89.60;;;;;;4180627;28;19934;-73
2022/10/19 11:46:36;;;;;;;;;;;27.70;89.80;;;;;;4194789;28;19925;-72
2022/10/19 11:49:01;;;;;;;;;;;27.70;89.90;;;;;;4197794;28;20381;-72
2022/10/19 11:51:16;;;;;;;;;;;27.70;90.20;;;;;;4211986;28;19935;-73
2022/10/19 11:53:37;;;;;;;;;;;27.70;90.30;;;;;;4195566;28;19947;-73
2022/10/19 11:55:52;;;;;;;;;;;27.60;90.50;;;;;;4212006;28;19958;-74
2022/10/19 11:58:21;;;;;;;;;;;27.60;90.60;;;;;;4200833;28;19925;-72
2022/10/19 12:00:32;;;;;;;;;;;27.60;90.60;;;;;;4194781;28;20542;-72
2022/10/19 12:02:59;;;;;;;;;;;27.60;90.70;;;;;;4194577;28;19950;-73
2022/10/19 12:05:18;;;;;;;;;;;27.50;90.90;;;;;;4193735;28;19928;-74
2022/10/19 12:07:28;;;;;;;;;;;27.50;91.40;;;;;;4202614;28;20529;-73
2022/10/19 12:09:46;;;;;;;;;;;27.40;91.30;;;;;;4194661;28;19929;-73
2022/10/19 12:12:02;;;;;;;;;;;27.40;91.50;;;;;;4194788;28;19924;-73
2022/10/19 12:14:17;;;;;;;;;;;27.40;91.70;;;;;;4195068;28;19947;-73
2022/10/19 12:16:45;;;;;;;;;;;27.30;91.70;;;;;;4192746;28;20306;-73
2022/10/19 12:18:57;;;;;;;;;;;27.30;92.00;;;;;;4209136;28;19932;-72
2022/10/19 12:21:11;;;;;;;;;;;27.30;92.00;;;;;;4209020;28;19932;-71
2022/10/19 12:23:36;;;;;;;;;;;27.30;92.10;;;;;;4206586;28;20402;-72
2022/10/19 12:26:03;;;;;;;;;;;27.30;92.20;;;;;;4183293;28;20440;-73
2022/10/19 12:28:29;;;;;;;;;;;27.30;92.40;;;;;;4206224;28;19928;-73
2022/10/19 12:30:34;;;;;;;;;;;27.20;92.50;;;;;;4194246;28;19963;-73
2022/10/19 12:33:03;;;;;;;;;;;27.20;92.70;;;;;;4178941;28;19936;-73
2022/10/19 12:35:16;;;;;;;;;;;27.20;92.90;;;;;;4188178;28;19967;-74
2022/10/19 12:37:38;;;;;;;;;;;27.10;92.90;;;;;;4170723;28;20002;-72
2022/10/19 12:39:48;;;;;;;;;;;27.10;92.80;;;;;;4169697;28;20338;-72
2022/10/19 12:42:17;;;;;;;;;;;27.10;92.80;;;;;;4175803;28;19929;-73